createdAt,value
2024-02-14T00:03:35.559Z,4.91
2024-02-14T00:08:39.263Z,4.91
2024-02-14T00:13:41.206Z,4.91
2024-02-14T00:18:42.834Z,4.88
2024-02-14T00:29:00.842Z,4.86
2024-02-14T00:34:02.776Z,4.85
2024-02-14T00:39:05.460Z,4.85
2024-02-14T00:44:07.587Z,4.86
2024-02-14T00:49:09.822Z,4.84
2024-02-14T00:54:11.546Z,4.83
2024-02-14T00:59:13.159Z,4.82
2024-02-14T01:04:14.728Z,4.79
2024-02-14T01:09:16.378Z,4.77
2024-02-14T01:14:18.025Z,4.72
2024-02-14T01:19:20.955Z,4.67
2024-02-14T01:24:23.612Z,4.62
2024-02-14T01:29:25.181Z,4.57
2024-02-14T01:34:26.911Z,4.51
2024-02-14T01:39:28.670Z,4.51
2024-02-14T01:44:30.303Z,4.51
2024-02-14T01:49:32.357Z,4.51
2024-02-14T01:54:36.136Z,4.51
2024-02-14T01:59:37.914Z,4.51
2024-02-14T02:04:39.461Z,4.53
2024-02-14T02:09:41.066Z,4.54
2024-02-14T02:14:42.671Z,4.54
2024-02-14T02:19:44.903Z,4.50
2024-02-14T02:24:47.308Z,4.45
2024-02-14T02:29:48.989Z,4.36
2024-02-14T02:34:50.752Z,4.23
2024-02-14T02:39:52.490Z,4.06
2024-02-14T02:44:54.553Z,3.91
2024-02-14T02:49:56.574Z,3.77
2024-02-14T02:54:58.356Z,3.64
2024-02-14T03:00:00.089Z,3.52
2024-02-14T03:05:03.979Z,3.44
2024-02-14T03:10:06.834Z,3.39
2024-02-14T03:15:11.783Z,3.36
2024-02-14T03:20:16.717Z,3.36
2024-02-14T03:25:21.706Z,3.38
2024-02-14T03:30:24.030Z,3.40
2024-02-14T03:35:28.162Z,3.45
2024-02-14T03:40:31.500Z,3.48
2024-02-14T03:45:33.115Z,3.51
2024-02-14T03:50:34.662Z,3.54
2024-02-14T03:55:36.241Z,3.56
2024-02-14T04:00:38.721Z,3.57
2024-02-14T04:05:40.514Z,3.60
2024-02-14T04:10:42.234Z,3.62
2024-02-14T04:15:47.545Z,3.62
2024-02-14T04:20:49.900Z,3.59
2024-02-14T04:25:51.586Z,3.58
2024-02-14T04:30:54.555Z,3.60
2024-02-14T04:35:56.477Z,3.63
2024-02-14T04:40:59.575Z,3.63
2024-02-14T04:46:01.598Z,3.62
2024-02-14T04:51:05.637Z,3.62
2024-02-14T04:56:08.891Z,3.61
2024-02-14T05:01:11.867Z,3.60
2024-02-14T05:06:13.599Z,3.57
2024-02-14T05:11:15.518Z,3.58
2024-02-14T05:16:21.781Z,3.61
2024-02-14T05:21:23.435Z,3.65
2024-02-14T05:26:24.958Z,3.65
2024-02-14T05:31:43.796Z,3.61
2024-02-14T05:36:47.405Z,3.63
2024-02-14T05:41:50.396Z,3.64
2024-02-14T05:46:52.111Z,3.61
2024-02-14T05:51:54.580Z,3.60
2024-02-14T05:56:56.159Z,3.61
2024-02-14T06:01:57.924Z,3.61
2024-02-14T06:06:59.665Z,3.61
2024-02-14T06:12:01.493Z,3.58
2024-02-14T06:17:03.328Z,3.55
2024-02-14T06:22:05.142Z,3.49
2024-02-14T06:27:07.775Z,3.43
2024-02-14T06:32:09.622Z,3.40
2024-02-14T06:37:11.173Z,3.37
2024-02-14T06:42:12.767Z,3.31
2024-02-14T06:47:14.412Z,3.29
2024-02-14T06:52:16.013Z,3.29
2024-02-14T06:57:17.543Z,3.34
2024-02-14T07:02:19.165Z,3.33
2024-02-14T07:07:20.705Z,3.32
2024-02-14T07:12:22.521Z,3.34
2024-02-14T07:17:24.660Z,3.37
2024-02-14T07:22:26.290Z,3.39
2024-02-14T07:27:28.206Z,3.40
2024-02-14T07:32:29.906Z,3.43
2024-02-14T07:37:31.848Z,3.47
2024-02-14T07:42:33.517Z,3.53
2024-02-14T07:47:35.244Z,3.65
2024-02-14T07:52:37.655Z,3.73
2024-02-14T07:57:40.404Z,3.82
2024-02-14T08:02:42.040Z,3.92
2024-02-14T08:07:43.820Z,4.00
2024-02-14T08:12:45.351Z,4.10
2024-02-14T08:17:47.594Z,4.19
2024-02-14T08:22:50.528Z,4.28
2024-02-14T08:27:52.231Z,4.39
2024-02-14T08:32:53.932Z,4.48
2024-02-14T08:37:57.886Z,4.59
2024-02-14T08:43:00.803Z,4.70
2024-02-14T08:48:05.727Z,4.80
2024-02-14T08:53:07.980Z,4.90
2024-02-14T08:58:13.253Z,5.01
2024-02-14T09:03:14.916Z,5.13
2024-02-14T09:08:16.671Z,5.23
2024-02-14T09:13:18.367Z,5.31
2024-02-14T09:18:20.386Z,5.41
2024-02-14T09:23:23.685Z,5.54
2024-02-14T09:28:26.438Z,5.66
2024-02-14T09:33:28.713Z,5.77
2024-02-14T09:38:30.617Z,5.87
2024-02-14T09:43:45.526Z,5.99
2024-02-14T09:48:47.415Z,6.08
2024-02-14T09:53:50.736Z,6.14
2024-02-14T09:58:57.671Z,6.25
2024-02-14T10:03:59.709Z,6.38
2024-02-14T10:09:04.255Z,6.47
2024-02-14T10:14:10.327Z,6.60
2024-02-14T10:19:21.700Z,6.69
2024-02-14T10:24:24.989Z,6.76
2024-02-14T10:29:27.241Z,6.86
2024-02-14T10:34:30.115Z,6.94
2024-02-14T10:39:33.829Z,7.01
2024-02-14T10:44:36.632Z,7.08
2024-02-14T10:49:41.247Z,7.16
2024-02-14T10:54:51.264Z,7.26
2024-02-14T10:59:54.834Z,7.34
2024-02-14T11:04:56.775Z,7.43
2024-02-14T11:10:18.726Z,7.49
2024-02-14T11:15:22.909Z,7.56
2024-02-14T11:20:34.503Z,7.59
2024-02-14T11:25:36.613Z,7.67
2024-02-14T11:30:38.581Z,7.74
2024-02-14T11:35:42.653Z,7.79
2024-02-14T11:40:44.925Z,7.83
2024-02-14T11:45:50.571Z,7.89
2024-02-14T11:50:53.602Z,7.95
2024-02-14T11:55:57.530Z,8.03
2024-02-14T12:00:59.199Z,8.09
2024-02-14T12:06:03.146Z,8.13
2024-02-14T12:11:05.197Z,8.19
2024-02-14T12:16:08.309Z,8.25
2024-02-14T12:21:09.986Z,8.26
2024-02-14T12:26:16.645Z,8.37
2024-02-14T12:31:25.313Z,8.39
2024-02-14T12:36:29.001Z,8.38
2024-02-14T12:41:31.936Z,8.37
2024-02-14T12:46:35.113Z,8.35
2024-02-14T12:51:39.827Z,8.32
2024-02-14T12:56:41.705Z,8.27
2024-02-14T13:01:44.675Z,8.24
2024-02-14T13:06:48.056Z,8.24
2024-02-14T13:11:49.687Z,8.27
2024-02-14T13:16:52.104Z,8.31
2024-02-14T13:21:53.759Z,8.32
2024-02-14T13:26:55.350Z,8.29
2024-02-14T13:31:56.912Z,8.24
2024-02-14T13:36:59.698Z,8.21
2024-02-14T13:42:02.535Z,8.13
2024-02-14T13:47:04.886Z,8.05
2024-02-14T13:52:06.620Z,8.00
2024-02-14T13:57:08.574Z,7.97
2024-02-14T14:02:12.820Z,7.94
2024-02-14T14:07:17.120Z,7.90
2024-02-14T14:12:18.739Z,7.88
2024-02-14T14:17:20.760Z,7.87
2024-02-14T14:22:22.413Z,7.88
2024-02-14T14:27:24.000Z,7.89
2024-02-14T14:32:25.631Z,7.87
2024-02-14T14:37:27.228Z,7.88
2024-02-14T14:42:30.349Z,7.89
2024-02-14T14:47:31.998Z,7.90
2024-02-14T14:52:34.976Z,7.89
2024-02-14T14:57:41.892Z,7.80
2024-02-14T15:02:44.623Z,7.69
2024-02-14T15:07:46.825Z,7.60
2024-02-14T15:12:50.857Z,7.46
2024-02-14T15:17:52.553Z,7.31
2024-02-14T15:22:54.291Z,7.15
2024-02-14T15:27:56.129Z,7.00
2024-02-14T15:33:16.834Z,6.87
2024-02-14T15:38:20.160Z,6.70
2024-02-14T15:43:22.187Z,6.54
2024-02-14T15:48:28.041Z,6.37
2024-02-14T15:53:31.743Z,6.22
2024-02-14T15:58:34.924Z,6.07
2024-02-14T16:03:36.483Z,5.95
2024-02-14T16:08:38.400Z,5.86
2024-02-14T16:13:39.968Z,5.82
2024-02-14T16:18:41.796Z,5.80
2024-02-14T16:23:43.513Z,5.76
2024-02-14T16:28:46.548Z,5.71
2024-02-14T16:33:50.950Z,5.66
2024-02-14T16:38:52.894Z,5.61
2024-02-14T16:43:57.236Z,5.57
2024-02-14T16:48:59.019Z,5.54
2024-02-14T16:54:00.889Z,5.49
2024-02-14T16:59:02.502Z,5.43
2024-02-14T17:04:06.084Z,5.37
2024-02-14T17:09:08.307Z,5.29
2024-02-14T17:14:11.117Z,5.21
2024-02-14T17:19:12.986Z,5.15
2024-02-14T17:24:15.087Z,5.13
2024-02-14T17:29:17.830Z,5.11
2024-02-14T17:34:19.548Z,5.11
2024-02-14T17:39:21.322Z,5.10
2024-02-14T17:44:22.975Z,5.08
2024-02-14T17:49:24.795Z,5.05
2024-02-14T17:54:27.456Z,5.03
2024-02-14T17:59:29.028Z,5.05
2024-02-14T18:04:30.817Z,5.06
2024-02-14T18:09:32.420Z,5.05
2024-02-14T18:14:34.069Z,5.04
2024-02-14T18:19:35.647Z,5.02
2024-02-14T18:24:40.167Z,4.99
2024-02-14T18:29:42.129Z,4.99
2024-02-14T18:34:43.800Z,4.98
2024-02-14T18:39:45.386Z,4.98
2024-02-14T18:44:48.348Z,5.00
2024-02-14T18:49:50.618Z,4.99
2024-02-14T18:54:52.348Z,4.99
2024-02-14T18:59:54.347Z,4.98
2024-02-14T19:04:57.539Z,4.98
2024-02-14T19:10:01.638Z,4.98
2024-02-14T19:15:05.018Z,4.97
2024-02-14T19:20:09.673Z,4.93
2024-02-14T19:25:11.732Z,4.87
2024-02-14T19:30:19.157Z,4.82
2024-02-14T19:35:21.032Z,4.79
2024-02-14T19:40:24.874Z,4.75
2024-02-14T19:45:26.697Z,4.76
2024-02-14T19:50:28.362Z,4.77
2024-02-14T19:55:29.982Z,4.77
2024-02-14T20:00:33.238Z,4.76
2024-02-14T20:05:38.086Z,4.76
2024-02-14T20:10:40.490Z,4.75
2024-02-14T20:15:42.068Z,4.75
2024-02-14T20:20:43.815Z,4.76
2024-02-14T20:25:45.481Z,4.77
2024-02-14T20:30:47.127Z,4.77
2024-02-14T20:35:50.071Z,4.78
2024-02-14T20:40:51.656Z,4.81
2024-02-14T20:45:53.299Z,4.82
2024-02-14T20:50:54.915Z,4.84
2024-02-14T20:55:56.887Z,4.86
2024-02-14T21:00:58.595Z,4.86
2024-02-14T21:06:01.151Z,4.84
2024-02-14T21:11:02.885Z,4.82
2024-02-14T21:16:05.689Z,4.81
2024-02-14T21:21:10.550Z,4.81
2024-02-14T21:26:12.448Z,4.82
2024-02-14T21:31:14.464Z,4.83
2024-02-14T21:36:16.685Z,4.85
2024-02-14T21:41:19.212Z,4.87
2024-02-14T21:46:20.784Z,4.87
2024-02-14T21:51:22.371Z,4.87
2024-02-14T21:56:23.932Z,4.85
2024-02-14T22:01:25.666Z,4.83
2024-02-14T22:06:27.749Z,4.83
2024-02-14T22:11:29.517Z,4.82
2024-02-14T22:16:31.129Z,4.82
2024-02-14T22:21:33.629Z,4.81
2024-02-14T22:26:35.274Z,4.81
2024-02-14T22:31:37.074Z,4.82
2024-02-14T22:36:38.887Z,4.81
2024-02-14T22:41:41.629Z,4.80
2024-02-14T22:46:44.782Z,4.80
2024-02-14T22:51:46.561Z,4.80
2024-02-14T22:56:48.535Z,4.78
2024-02-14T23:01:50.065Z,4.77
2024-02-14T23:06:51.755Z,4.75
2024-02-14T23:11:53.414Z,4.75
2024-02-14T23:16:54.989Z,4.75
2024-02-14T23:21:56.686Z,4.74
2024-02-14T23:26:58.739Z,4.73
2024-02-14T23:32:00.398Z,4.73
2024-02-14T23:37:02.410Z,4.73
2024-02-14T23:42:04.470Z,4.74
2024-02-14T23:47:08.179Z,4.76
2024-02-14T23:52:10.079Z,4.77
2024-02-14T23:57:12.130Z,4.76
